Time;durP1;ratioP1;P1;durP2;ratioP2;P2;SDS_P1;SDS_P2;PMS_P1;PMS_P2;Temp;Humidity;BMP_temperature;BMP_pressure;BME280_temperature;BME280_humidity;BME280_pressure;Samples;Min_cycle;Max_cycle;Signal;HPM_P1;HPM_P2
2023/03/08 00:02:17;;;;;;;7.87;7.07;;;;;;;;;;5031161;28;20220;-47
2023/03/08 00:04:43;;;;;;;7.20;6.50;;;;;;;;;;5032084;28;20244;-47
2023/03/08 00:07:09;;;;;;;8.37;7.33;;;;;;;;;;5031739;28;20663;-46
2023/03/08 00:09:37;;;;;;;7.23;6.50;;;;;;;;;;5032129;28;20424;-46
2023/03/08 00:12:06;;;;;;;7.60;6.90;;;;;;;;;;5031931;28;20201;-47
2023/03/08 00:14:32;;;;;;;7.00;6.30;;;;;;;;;;5032238;28;20428;-46
2023/03/08 00:16:58;;;;;;;7.80;6.83;;;;;;;;;;5032009;28;20442;-47
2023/03/08 00:19:24;;;;;;;9.73;7.13;;;;;;;;;;5031983;28;20197;-47
2023/03/08 00:21:50;;;;;;;7.50;6.80;;;;;;;;;;5032106;28;20470;-46
2023/03/08 00:24:16;;;;;;;7.00;6.33;;;;;;;;;;5032077;28;20930;-47
2023/03/08 00:26:42;;;;;;;7.87;6.50;;;;;;;;;;5032109;28;20197;-47
2023/03/08 00:29:10;;;;;;;7.10;6.40;;;;;;;;;;5031821;28;20527;-47
2023/03/08 00:31:36;;;;;;;7.83;7.10;;;;;;;;;;5031761;28;20459;-47
2023/03/08 00:34:02;;;;;;;7.60;6.50;;;;;;;;;;5031581;28;20487;-48
2023/03/08 00:36:28;;;;;;;8.27;6.93;;;;;;;;;;5031849;28;20654;-47
2023/03/08 00:38:55;;;;;;;8.23;7.23;;;;;;;;;;5031989;28;20439;-47
2023/03/08 00:41:21;;;;;;;7.83;7.00;;;;;;;;;;5031814;28;20467;-47
2023/03/08 00:43:47;;;;;;;7.90;7.10;;;;;;;;;;5031376;28;20482;-47
2023/03/08 00:46:15;;;;;;;8.87;7.17;;;;;;;;;;5031590;28;20197;-46
2023/03/08 00:48:41;;;;;;;7.97;6.93;;;;;;;;;;5031980;28;20860;-46
2023/03/08 00:51:08;;;;;;;8.07;7.33;;;;;;;;;;5031641;28;20531;-47
2023/03/08 00:53:34;;;;;;;10.77;7.40;;;;;;;;;;5031696;28;20567;-46
2023/03/08 00:56:00;;;;;;;7.90;7.10;;;;;;;;;;5031349;28;20501;-46
2023/03/08 00:58:26;;;;;;;8.20;7.40;;;;;;;;;;5031756;28;20833;-47
2023/03/08 01:00:53;;;;;;;10.77;7.13;;;;;;;;;;5031410;28;20247;-47
2023/03/08 01:03:20;;;;;;;9.63;7.20;;;;;;;;;;5031319;28;21052;-47
2023/03/08 01:05:48;;;;;;;7.07;6.40;;;;;;;;;;5031441;28;20527;-47
2023/03/08 01:08:14;;;;;;;7.87;6.50;;;;;;;;;;5031357;28;20458;-47
2023/03/08 01:10:40;;;;;;;6.83;6.23;;;;;;;;;;5031503;28;20956;-47
2023/03/08 01:13:07;;;;;;;8.40;7.00;;;;;;;;;;5031991;28;20471;-47
2023/03/08 01:15:35;;;;;;;7.87;7.17;;;;;;;;;;5035460;28;20446;-46
2023/03/08 01:18:01;;;;;;;9.57;7.40;;;;;;;;;;5031555;28;20439;-46
2023/03/08 01:20:29;;;;;;;10.10;7.97;;;;;;;;;;5035422;28;20442;-49
2023/03/08 01:22:54;;;;;;;9.97;7.93;;;;;;;;;;5035271;28;20861;-48
2023/03/08 01:25:20;;;;;;;13.70;7.77;;;;;;;;;;5035091;28;20465;-47
2023/03/08 01:27:46;;;;;;;7.83;7.10;;;;;;;;;;5035261;28;20212;-47
2023/03/08 01:30:13;;;;;;;8.00;7.20;;;;;;;;;;5035150;28;20197;-47
2023/03/08 01:32:39;;;;;;;8.20;7.40;;;;;;;;;;5035081;28;20213;-47
2023/03/08 01:35:05;;;;;;;8.77;7.43;;;;;;;;;;5034803;28;20435;-47
2023/03/08 01:37:33;;;;;;;8.70;6.80;;;;;;;;;;5035088;28;20226;-47
2023/03/08 01:39:59;;;;;;;7.27;6.50;;;;;;;;;;5034850;28;20857;-46
2023/03/08 01:42:25;;;;;;;7.30;6.60;;;;;;;;;;5035129;28;20542;-47
2023/03/08 01:44:52;;;;;;;8.43;6.43;;;;;;;;;;5034783;28;20443;-47
2023/03/08 01:47:19;;;;;;;7.13;6.40;;;;;;;;;;5034743;28;20514;-47
2023/03/08 01:49:46;;;;;;;6.57;5.87;;;;;;;;;;5034723;28;20582;-47
2023/03/08 01:52:14;;;;;;;8.67;6.47;;;;;;;;;;5034746;28;20443;-47
2023/03/08 01:54:45;;;;;;;9.03;6.97;;;;;;;;;;5034734;28;20450;-47
2023/03/08 01:57:14;;;;;;;8.50;6.73;;;;;;;;;;5033813;28;20471;-46
2023/03/08 01:59:41;;;;;;;12.30;7.00;;;;;;;;;;5033846;28;20470;-47
2023/03/08 02:02:07;;;;;;;8.40;6.73;;;;;;;;;;5034101;28;20462;-47
2023/03/08 02:04:33;;;;;;;7.63;6.93;;;;;;;;;;5034262;28;20862;-46
2023/03/08 02:06:59;;;;;;;7.97;6.47;;;;;;;;;;5034464;28;20212;-47
2023/03/08 02:09:25;;;;;;;8.63;6.70;;;;;;;;;;5034550;28;20205;-47
2023/03/08 02:11:52;;;;;;;7.87;6.50;;;;;;;;;;5034377;28;20515;-47
2023/03/08 02:14:18;;;;;;;10.67;6.60;;;;;;;;;;5034221;28;20232;-47
2023/03/08 02:16:44;;;;;;;7.60;6.30;;;;;;;;;;5034315;28;20440;-47
2023/03/08 02:19:11;;;;;;;6.33;5.77;;;;;;;;;;5034378;28;20204;-47
2023/03/08 02:21:37;;;;;;;6.30;5.80;;;;;;;;;;5034184;28;20212;-47
2023/03/08 02:24:07;;;;;;;7.57;5.67;;;;;;;;;;5033771;28;20436;-46
2023/03/08 02:26:35;;;;;;;6.33;5.73;;;;;;;;;;5033535;28;20205;-47
2023/03/08 02:29:01;;;;;;;6.53;5.93;;;;;;;;;;5033704;28;20452;-48
2023/03/08 02:31:27;;;;;;;5.87;5.33;;;;;;;;;;5034099;28;20808;-47
2023/03/08 02:33:53;;;;;;;6.60;5.93;;;;;;;;;;5033891;28;20575;-47
2023/03/08 02:36:19;;;;;;;6.93;6.23;;;;;;;;;;5033917;28;20423;-47
2023/03/08 02:38:45;;;;;;;7.83;5.30;;;;;;;;;;5034000;28;20443;-47
2023/03/08 02:41:12;;;;;;;7.07;5.90;;;;;;;;;;5033847;28;20637;-47
2023/03/08 02:43:38;;;;;;;6.10;5.47;;;;;;;;;;5033791;28;20197;-47
2023/03/08 02:46:04;;;;;;;6.27;5.70;;;;;;;;;;5033685;28;20807;-47
2023/03/08 02:48:30;;;;;;;8.03;5.90;;;;;;;;;;5033734;28;20203;-47
2023/03/08 02:50:56;;;;;;;8.67;6.03;;;;;;;;;;5033586;28;20965;-47
2023/03/08 02:53:23;;;;;;;6.53;5.93;;;;;;;;;;5033505;28;20476;-47
2023/03/08 02:55:49;;;;;;;8.43;6.10;;;;;;;;;;5033565;28;20201;-47
2023/03/08 02:58:16;;;;;;;6.87;6.20;;;;;;;;;;5033450;28;20443;-47
2023/03/08 03:00:42;;;;;;;6.87;6.17;;;;;;;;;;5033497;28;20460;-47
2023/03/08 03:03:08;;;;;;;6.70;6.00;;;;;;;;;;5033189;28;20479;-47
2023/03/08 03:05:34;;;;;;;6.10;5.33;;;;;;;;;;5033335;28;20439;-47
2023/03/08 03:08:00;;;;;;;6.90;5.70;;;;;;;;;;5033259;28;20201;-47
2023/03/08 03:10:26;;;;;;;6.17;5.60;;;;;;;;;;5033454;28;20223;-47
2023/03/08 03:12:52;;;;;;;7.00;5.90;;;;;;;;;;5033086;28;20511;-47
2023/03/08 03:15:20;;;;;;;6.77;5.90;;;;;;;;;;5033244;28;20487;-48
2023/03/08 03:17:46;;;;;;;6.40;5.77;;;;;;;;;;5033112;28;20530;-47
2023/03/08 03:20:12;;;;;;;6.07;5.50;;;;;;;;;;5032962;28;20527;-47
2023/03/08 03:22:38;;;;;;;6.37;5.77;;;;;;;;;;5033020;28;20738;-47
2023/03/08 03:25:05;;;;;;;5.93;5.43;;;;;;;;;;5032861;28;20471;-47
2023/03/08 03:27:31;;;;;;;6.87;6.00;;;;;;;;;;5033000;28;20204;-46
2023/03/08 03:29:57;;;;;;;7.17;5.97;;;;;;;;;;5032982;28;20439;-47
2023/03/08 03:32:24;;;;;;;6.93;6.10;;;;;;;;;;5032964;28;20427;-47
2023/03/08 03:34:50;;;;;;;5.70;5.20;;;;;;;;;;5032741;28;20474;-47
2023/03/08 03:37:16;;;;;;;6.23;5.63;;;;;;;;;;5032529;28;20543;-48
2023/03/08 03:39:42;;;;;;;6.27;5.67;;;;;;;;;;5032813;28;20526;-48
2023/03/08 03:42:09;;;;;;;7.80;6.17;;;;;;;;;;5032773;28;20439;-48
2023/03/08 03:44:35;;;;;;;6.70;6.10;;;;;;;;;;5032687;28;20486;-48
2023/03/08 03:47:01;;;;;;;8.87;6.33;;;;;;;;;;5032515;28;20428;-47
2023/03/08 03:49:28;;;;;;;6.60;5.90;;;;;;;;;;5032677;28;20211;-48
2023/03/08 03:51:54;;;;;;;7.27;6.13;;;;;;;;;;5032498;28;20802;-46
2023/03/08 03:54:20;;;;;;;7.30;6.60;;;;;;;;;;5032351;28;20483;-46
2023/03/08 03:56:46;;;;;;;7.00;5.90;;;;;;;;;;5032504;28;20208;-46
2023/03/08 03:59:13;;;;;;;7.97;6.13;;;;;;;;;;5032427;28;20197;-46
2023/03/08 04:01:39;;;;;;;7.10;6.40;;;;;;;;;;5032349;28;20444;-45
2023/03/08 04:04:05;;;;;;;8.10;7.00;;;;;;;;;;5032089;28;20476;-46
2023/03/08 04:06:33;;;;;;;8.37;6.77;;;;;;;;;;5032440;28;20922;-46
2023/03/08 04:09:00;;;;;;;7.77;6.47;;;;;;;;;;5032245;28;20443;-46
2023/03/08 04:11:27;;;;;;;7.83;7.03;;;;;;;;;;5032419;28;20439;-46
2023/03/08 04:13:54;;;;;;;8.03;7.20;;;;;;;;;;5032140;28;20533;-46
2023/03/08 04:16:20;;;;;;;8.33;7.47;;;;;;;;;;5032105;28;20448;-47
2023/03/08 04:18:46;;;;;;;9.47;7.43;;;;;;;;;;5032115;28;20439;-48
2023/03/08 04:21:13;;;;;;;7.30;6.60;;;;;;;;;;5032042;28;20842;-47
2023/03/08 04:23:40;;;;;;;8.07;7.27;;;;;;;;;;5032127;28;20302;-47
2023/03/08 04:26:07;;;;;;;9.23;7.27;;;;;;;;;;5032192;28;20431;-46
2023/03/08 04:28:33;;;;;;;8.30;7.50;;;;;;;;;;5032055;28;20435;-47
2023/03/08 04:30:59;;;;;;;8.30;7.27;;;;;;;;;;5031938;28;20467;-47
2023/03/08 04:33:25;;;;;;;9.23;7.90;;;;;;;;;;5031943;28;20895;-47
2023/03/08 04:35:51;;;;;;;8.13;7.33;;;;;;;;;;5031875;28;20303;-47
2023/03/08 04:38:17;;;;;;;9.47;7.53;;;;;;;;;;5032038;28;20436;-46
2023/03/08 04:41:01;;;;;;;10.37;7.97;;;;;;;;;;5031924;28;20432;-47
2023/03/08 04:43:27;;;;;;;8.03;7.27;;;;;;;;;;5032027;28;20980;-47
2023/03/08 04:45:53;;;;;;;8.07;7.07;;;;;;;;;;5031932;28;20436;-48
2023/03/08 04:48:19;;;;;;;9.13;7.60;;;;;;;;;;5032885;28;20209;-48
2023/03/08 04:50:51;;;;;;;8.37;7.57;;;;;;;;;;5035795;28;20436;-48
2023/03/08 04:53:17;;;;;;;8.53;7.60;;;;;;;;;;5035950;28;20528;-48
2023/03/08 04:55:43;;;;;;;9.27;8.37;;;;;;;;;;5035839;28;20846;-48
2023/03/08 04:58:10;;;;;;;9.27;8.27;;;;;;;;;;5035778;28;20225;-47
2023/03/08 05:00:36;;;;;;;10.47;8.10;;;;;;;;;;5035676;28;20224;-47
2023/03/08 05:03:02;;;;;;;10.87;8.37;;;;;;;;;;5035747;28;20478;-47
2023/03/08 05:05:28;;;;;;;10.80;9.10;;;;;;;;;;5035734;28;20216;-47
2023/03/08 05:07:54;;;;;;;10.10;9.00;;;;;;;;;;5035653;28;20452;-47
2023/03/08 05:10:20;;;;;;;11.17;9.40;;;;;;;;;;5035572;28;20493;-47
2023/03/08 05:12:46;;;;;;;11.67;8.70;;;;;;;;;;5035575;28;20220;-47
2023/03/08 05:15:14;;;;;;;15.23;9.87;;;;;;;;;;5035448;28;20466;-47
2023/03/08 05:17:40;;;;;;;8.73;7.80;;;;;;;;;;5035813;28;20219;-46
2023/03/08 05:20:06;;;;;;;8.80;7.23;;;;;;;;;;5035157;28;20439;-47
2023/03/08 05:22:33;;;;;;;8.13;7.33;;;;;;;;;;5035271;28;20189;-48
2023/03/08 05:24:59;;;;;;;9.93;7.97;;;;;;;;;;5035278;28;20514;-47
2023/03/08 05:27:24;;;;;;;7.97;6.97;;;;;;;;;;5035464;28;20511;-48
2023/03/08 05:29:50;;;;;;;7.67;6.90;;;;;;;;;;5035267;28;20729;-47
2023/03/08 05:32:18;;;;;;;10.00;7.53;;;;;;;;;;5035106;28;20237;-48
2023/03/08 05:34:44;;;;;;;7.50;6.80;;;;;;;;;;5034966;28;20232;-52
2023/03/08 05:37:10;;;;;;;9.53;7.30;;;;;;;;;;5035052;28;20522;-47
2023/03/08 05:39:36;;;;;;;9.50;7.70;;;;;;;;;;5035124;28;20204;-47
2023/03/08 05:42:05;;;;;;;7.73;6.77;;;;;;;;;;5034972;28;20251;-47
2023/03/08 05:44:31;;;;;;;8.00;7.20;;;;;;;;;;5034943;28;20203;-47
2023/03/08 05:46:57;;;;;;;9.60;7.00;;;;;;;;;;5034855;28;20431;-46
2023/03/08 05:49:24;;;;;;;8.50;7.27;;;;;;;;;;5034687;28;20201;-48
2023/03/08 05:51:50;;;;;;;7.53;6.27;;;;;;;;;;5034793;28;20204;-48
2023/03/08 05:54:16;;;;;;;8.57;6.30;;;;;;;;;;5034528;28;20506;-48
2023/03/08 05:56:42;;;;;;;7.50;6.70;;;;;;;;;;5034749;28;20205;-46
2023/03/08 05:59:08;;;;;;;7.07;6.40;;;;;;;;;;5034449;28;20726;-46
2023/03/08 06:01:34;;;;;;;7.57;6.80;;;;;;;;;;5034556;28;20262;-47
2023/03/08 06:04:00;;;;;;;7.37;6.50;;;;;;;;;;5034180;28;20236;-48
2023/03/08 06:06:28;;;;;;;7.57;6.77;;;;;;;;;;5034693;28;20217;-48
2023/03/08 06:08:55;;;;;;;9.20;8.30;;;;;;;;;;5034469;28;20444;-48
2023/03/08 06:11:21;;;;;;;11.07;8.07;;;;;;;;;;5034471;28;20557;-47
2023/03/08 06:13:47;;;;;;;9.03;7.90;;;;;;;;;;5034156;28;20479;-47
2023/03/08 06:16:13;;;;;;;11.17;9.57;;;;;;;;;;5033978;28;20435;-48
2023/03/08 06:18:40;;;;;;;11.67;10.57;;;;;;;;;;5034096;28;20435;-47
2023/03/08 06:21:07;;;;;;;12.40;9.77;;;;;;;;;;5033747;28;20439;-47
2023/03/08 06:23:34;;;;;;;10.47;9.33;;;;;;;;;;5034113;28;20439;-47
2023/03/08 06:26:01;;;;;;;10.47;9.27;;;;;;;;;;5033905;28;20816;-48
2023/03/08 06:28:27;;;;;;;11.10;9.03;;;;;;;;;;5034063;28;20444;-47
2023/03/08 06:30:54;;;;;;;10.57;9.37;;;;;;;;;;5034000;28;20491;-47
2023/03/08 06:33:20;;;;;;;11.83;9.33;;;;;;;;;;5033749;28;20567;-48
2023/03/08 06:35:54;;;;;;;13.47;10.27;;;;;;;;;;5033835;28;20450;-47
2023/03/08 06:38:21;;;;;;;10.53;8.37;;;;;;;;;;5033643;28;20505;-47
2023/03/08 06:40:48;;;;;;;12.07;8.90;;;;;;;;;;5033725;28;20432;-47
2023/03/08 06:43:14;;;;;;;11.87;8.60;;;;;;;;;;5033843;28;20450;-47
2023/03/08 06:45:40;;;;;;;12.70;9.27;;;;;;;;;;5033938;28;20432;-47
2023/03/08 06:48:06;;;;;;;10.90;8.17;;;;;;;;;;5033612;28;20494;-47
2023/03/08 06:50:32;;;;;;;9.47;8.47;;;;;;;;;;5015668;28;20439;-47
2023/03/08 06:52:58;;;;;;;9.60;8.23;;;;;;;;;;5033580;28;20459;-47
2023/03/08 06:55:24;;;;;;;8.50;7.60;;;;;;;;;;5033607;28;20463;-47
2023/03/08 06:57:51;;;;;;;11.77;8.50;;;;;;;;;;5033786;28;20451;-47
2023/03/08 07:00:18;;;;;;;9.53;8.47;;;;;;;;;;5033460;28;20471;-47
2023/03/08 07:02:44;;;;;;;10.40;8.13;;;;;;;;;;5033177;28;20847;-47
2023/03/08 07:05:10;;;;;;;9.43;8.43;;;;;;;;;;5033337;28;20918;-46
2023/03/08 07:07:36;;;;;;;10.57;7.97;;;;;;;;;;5033638;28;20466;-48
2023/03/08 07:10:02;;;;;;;10.57;8.93;;;;;;;;;;5033290;28;20284;-48
2023/03/08 07:12:30;;;;;;;8.87;7.97;;;;;;;;;;5032623;28;20205;-48
2023/03/08 07:14:57;;;;;;;9.37;7.67;;;;;;;;;;5033345;28;20303;-48
2023/03/08 07:17:23;;;;;;;8.50;7.53;;;;;;;;;;5033258;28;20448;-46
2023/03/08 07:19:49;;;;;;;12.57;8.43;;;;;;;;;;5033287;28;20450;-46
2023/03/08 07:22:15;;;;;;;9.37;8.37;;;;;;;;;;5032885;28;20200;-47
2023/03/08 07:24:41;;;;;;;9.23;8.07;;;;;;;;;;5033193;28;20196;-46
2023/03/08 07:27:07;;;;;;;9.90;8.13;;;;;;;;;;5032868;28;20493;-48
2023/03/08 07:29:33;;;;;;;9.40;8.30;;;;;;;;;;5033010;28;20197;-47
2023/03/08 07:32:00;;;;;;;8.83;7.93;;;;;;;;;;5032909;28;20964;-46
2023/03/08 07:34:26;;;;;;;9.13;8.20;;;;;;;;;;5032856;28;20291;-47
2023/03/08 07:36:52;;;;;;;12.50;8.77;;;;;;;;;;5032836;28;20432;-50
2023/03/08 07:39:18;;;;;;;13.13;8.90;;;;;;;;;;5032713;28;20620;-49
2023/03/08 07:41:44;;;;;;;10.27;8.73;;;;;;;;;;5032789;28;20212;-51
2023/03/08 07:44:10;;;;;;;10.93;9.20;;;;;;;;;;5032699;28;20193;-49
2023/03/08 07:46:36;;;;;;;11.43;9.10;;;;;;;;;;5032430;28;20241;-50
2023/03/08 07:49:09;;;;;;;11.57;8.80;;;;;;;;;;5032206;28;20213;-49
2023/03/08 07:51:35;;;;;;;10.70;8.87;;;;;;;;;;5032597;28;20767;-50
2023/03/08 07:54:01;;;;;;;9.67;8.47;;;;;;;;;;5032307;28;20570;-49
2023/03/08 07:56:27;;;;;;;11.50;10.30;;;;;;;;;;5032535;28;20205;-50
2023/03/08 07:58:55;;;;;;;10.63;9.53;;;;;;;;;;5032466;28;20201;-49
2023/03/08 08:01:21;;;;;;;11.47;9.00;;;;;;;;;;5032188;28;20547;-49
2023/03/08 08:03:47;;;;;;;11.07;9.57;;;;;;;;;;5032006;28;20574;-48
2023/03/08 08:06:14;;;;;;;10.50;9.37;;;;;;;;;;5032271;28;20205;-50
2023/03/08 08:08:40;;;;;;;12.63;10.10;;;;;;;;;;5032440;28;20201;-49
2023/03/08 08:11:10;;;;;;;11.70;9.70;;;;;;;;;;5032110;28;20432;-51
2023/03/08 08:13:36;;;;;;;11.30;9.07;;;;;;;;;;5031999;28;21001;-50
2023/03/08 08:16:02;;;;;;;11.57;10.23;;;;;;;;;;5032020;28;20436;-49
2023/03/08 08:18:28;;;;;;;11.47;9.47;;;;;;;;;;5032001;28;20228;-49
2023/03/08 08:21:01;;;;;;;11.57;9.63;;;;;;;;;;5032391;28;20424;-48
2023/03/08 08:23:28;;;;;;;11.50;10.17;;;;;;;;;;5031410;28;20456;-51
2023/03/08 08:25:55;;;;;;;12.37;9.53;;;;;;;;;;5032276;28;20434;-49
2023/03/08 08:28:21;;;;;;;14.30;10.30;;;;;;;;;;5032187;28;20474;-48
2023/03/08 08:30:54;;;;;;;11.63;9.83;;;;;;;;;;5032249;28;20761;-48
2023/03/08 08:33:20;;;;;;;13.70;10.13;;;;;;;;;;5032053;28;20479;-49
2023/03/08 08:35:46;;;;;;;13.10;10.57;;;;;;;;;;5032038;28;20439;-48
2023/03/08 08:38:12;;;;;;;14.60;10.70;;;;;;;;;;5032094;28;20613;-48
2023/03/08 08:40:40;;;;;;;11.80;10.13;;;;;;;;;;5032226;28;20197;-48
2023/03/08 08:43:06;;;;;;;11.43;10.23;;;;;;;;;;5031969;28;20440;-48
2023/03/08 08:45:32;;;;;;;13.80;10.70;;;;;;;;;;5030114;28;20428;-50
2023/03/08 08:47:58;;;;;;;12.73;10.57;;;;;;;;;;5031729;28;20953;-49
2023/03/08 08:50:24;;;;;;;12.20;10.37;;;;;;;;;;5031131;28;20208;-49
2023/03/08 08:52:50;;;;;;;12.53;10.57;;;;;;;;;;5031570;28;20764;-49
2023/03/08 08:55:16;;;;;;;11.47;10.27;;;;;;;;;;5031426;28;20703;-50
2023/03/08 08:57:43;;;;;;;11.53;9.80;;;;;;;;;;5031520;28;20197;-49
2023/03/08 09:00:10;;;;;;;12.20;10.13;;;;;;;;;;5031276;28;20209;-49
2023/03/08 09:02:36;;;;;;;12.53;9.33;;;;;;;;;;5031498;28;20440;-49
2023/03/08 09:05:02;;;;;;;12.50;9.67;;;;;;;;;;5031060;28;21003;-48
2023/03/08 09:07:28;;;;;;;11.47;9.77;;;;;;;;;;5031448;28;20822;-48
2023/03/08 09:09:54;;;;;;;11.17;9.13;;;;;;;;;;5031428;28;20443;-47
2023/03/08 09:12:20;;;;;;;12.20;10.10;;;;;;;;;;5031744;28;20205;-48
2023/03/08 09:14:47;;;;;;;12.00;10.33;;;;;;;;;;5031708;28;20529;-48
2023/03/08 09:17:13;;;;;;;10.77;9.60;;;;;;;;;;5031647;28;20440;-52
2023/03/08 09:19:39;;;;;;;11.93;10.03;;;;;;;;;;5031623;28;20480;-47
2023/03/08 09:22:05;;;;;;;12.67;11.00;;;;;;;;;;5031628;28;20462;-50
2023/03/08 09:24:31;;;;;;;13.43;11.20;;;;;;;;;;5031634;28;20559;-48
2023/03/08 09:26:57;;;;;;;13.63;11.80;;;;;;;;;;5031752;28;20945;-47
2023/03/08 09:29:23;;;;;;;13.37;11.53;;;;;;;;;;5031606;28;20201;-48
2023/03/08 09:31:51;;;;;;;13.77;11.57;;;;;;;;;;5031710;28;20726;-53
2023/03/08 09:34:17;;;;;;;14.40;11.23;;;;;;;;;;5032361;28;20255;-48
2023/03/08 09:36:43;;;;;;;14.27;11.03;;;;;;;;;;5035399;28;20435;-49
2023/03/08 09:39:10;;;;;;;12.27;10.97;;;;;;;;;;5035063;28;21098;-48
2023/03/08 09:41:51;;;;;;;15.13;12.27;;;;;;;;;;5035240;28;20212;-48
2023/03/08 09:44:22;;;;;;;14.30;12.60;;;;;;;;;;5032139;28;20496;-48
2023/03/08 09:46:50;;;;;;;14.73;12.47;;;;;;;;;;5035040;28;20459;-47
2023/03/08 09:49:22;;;;;;;15.03;11.53;;;;;;;;;;5034823;28;20518;-49
2023/03/08 09:51:58;;;;;;;14.43;12.27;;;;;;;;;;5034909;28;20458;-48
2023/03/08 09:54:25;;;;;;;14.40;11.93;;;;;;;;;;5034911;28;20489;-48
2023/03/08 09:56:52;;;;;;;16.73;12.10;;;;;;;;;;5034873;28;20458;-49
2023/03/08 09:59:21;;;;;;;18.13;11.63;;;;;;;;;;5034850;28;20493;-48
2023/03/08 10:01:51;;;;;;;12.63;10.60;;;;;;;;;;5034678;28;20459;-48
2023/03/08 10:04:35;;;;;;;15.27;11.23;;;;;;;;;;5034433;28;20490;-48
2023/03/08 10:07:10;;;;;;;16.77;11.10;;;;;;;;;;5034196;28;20444;-49
2023/03/08 10:09:40;;;;;;;13.87;10.97;;;;;;;;;;5034606;28;20442;-49
2023/03/08 10:12:11;;;;;;;13.93;11.40;;;;;;;;;;5034742;28;20460;-49
2023/03/08 10:14:40;;;;;;;14.27;11.57;;;;;;;;;;5034608;28;20555;-49
2023/03/08 10:17:10;;;;;;;12.10;10.80;;;;;;;;;;5034557;28;20432;-49
2023/03/08 10:19:37;;;;;;;12.30;10.70;;;;;;;;;;5034392;28;20498;-49
2023/03/08 10:22:08;;;;;;;12.10;10.80;;;;;;;;;;5034306;28;20863;-49
2023/03/08 10:24:40;;;;;;;13.83;10.90;;;;;;;;;;5034387;28;20934;-49
2023/03/08 10:27:11;;;;;;;11.93;10.67;;;;;;;;;;5034291;28;20452;-49
2023/03/08 10:29:37;;;;;;;12.10;10.73;;;;;;;;;;5034375;28;20432;-49
2023/03/08 10:32:04;;;;;;;13.67;10.87;;;;;;;;;;5034134;28;20786;-49
2023/03/08 10:34:31;;;;;;;12.33;10.70;;;;;;;;;;5034136;28;20231;-49
2023/03/08 10:36:59;;;;;;;13.83;10.77;;;;;;;;;;5034246;28;20889;-49
2023/03/08 10:39:25;;;;;;;11.67;10.47;;;;;;;;;;5034108;28;20460;-48
2023/03/08 10:41:54;;;;;;;11.80;10.30;;;;;;;;;;5033970;28;20427;-50
2023/03/08 10:44:29;;;;;;;13.83;10.43;;;;;;;;;;5033755;28;20460;-48
2023/03/08 10:46:55;;;;;;;11.90;10.53;;;;;;;;;;5033217;28;20450;-49
2023/03/08 10:49:23;;;;;;;12.37;10.07;;;;;;;;;;5033761;28;20451;-48
2023/03/08 10:51:54;;;;;;;11.23;10.13;;;;;;;;;;5033739;28;20687;-49
2023/03/08 10:54:20;;;;;;;12.73;10.40;;;;;;;;;;5033740;28;20467;-49
2023/03/08 10:56:50;;;;;;;13.00;9.30;;;;;;;;;;5033774;28;20438;-50
2023/03/08 10:59:20;;;;;;;11.90;8.93;;;;;;;;;;5033316;28;21041;-49
2023/03/08 11:01:48;;;;;;;9.73;8.73;;;;;;;;;;5033480;28;20459;-49
2023/03/08 11:04:15;;;;;;;9.67;8.67;;;;;;;;;;5033303;28;20553;-49
2023/03/08 11:06:41;;;;;;;10.67;9.13;;;;;;;;;;5033689;28;20478;-49
2023/03/08 11:09:18;;;;;;;8.70;7.60;;;;;;;;;;5033424;28;20440;-51
2023/03/08 11:11:44;;;;;;;9.40;8.40;;;;;;;;;;5033527;28;20216;-49
2023/03/08 11:14:11;;;;;;;9.53;8.50;;;;;;;;;;5033353;28;21036;-50
2023/03/08 11:16:44;;;;;;;12.07;9.30;;;;;;;;;;5033406;28;20201;-49
2023/03/08 11:19:16;;;;;;;10.23;7.87;;;;;;;;;;5033214;28;20942;-48
2023/03/08 11:21:48;;;;;;;9.37;8.07;;;;;;;;;;5033330;28;20447;-48
2023/03/08 11:24:22;;;;;;;12.20;8.83;;;;;;;;;;5033112;28;20482;-49
2023/03/08 11:26:52;;;;;;;11.43;8.70;;;;;;;;;;5033047;28;20844;-47
2023/03/08 11:29:22;;;;;;;9.20;7.37;;;;;;;;;;5032847;28;20439;-47
2023/03/08 11:31:54;;;;;;;9.70;7.80;;;;;;;;;;5032589;28;20937;-47
2023/03/08 11:34:28;;;;;;;12.03;8.10;;;;;;;;;;5032741;28;20575;-48
2023/03/08 11:37:00;;;;;;;8.13;7.33;;;;;;;;;;5033008;28;20455;-46
2023/03/08 11:39:29;;;;;;;8.33;7.30;;;;;;;;;;5032899;28;20458;-47
2023/03/08 11:41:58;;;;;;;9.53;7.70;;;;;;;;;;5032906;28;20432;-47
2023/03/08 11:44:31;;;;;;;8.47;7.23;;;;;;;;;;5026769;28;20487;-47
2023/03/08 11:47:07;;;;;;;8.97;7.23;;;;;;;;;;5031608;28;20448;-47
2023/03/08 11:49:40;;;;;;;9.60;7.30;;;;;;;;;;5032475;28;20478;-46
2023/03/08 11:52:13;;;;;;;9.73;6.97;;;;;;;;;;5032512;28;20440;-46
2023/03/08 11:54:45;;;;;;;8.60;6.80;;;;;;;;;;5030476;28;20499;-45
2023/03/08 11:57:12;;;;;;;8.07;6.13;;;;;;;;;;5030847;28;20446;-46
2023/03/08 11:59:40;;;;;;;8.00;6.07;;;;;;;;;;5032447;28;20778;-47
2023/03/08 12:02:13;;;;;;;6.87;5.43;;;;;;;;;;5032480;28;20985;-48
2023/03/08 12:04:42;;;;;;;6.30;5.53;;;;;;;;;;5032318;28;20475;-47
2023/03/08 12:07:11;;;;;;;7.70;6.13;;;;;;;;;;5032309;28;20478;-46
2023/03/08 12:09:41;;;;;;;6.80;6.10;;;;;;;;;;5032308;28;20462;-47
2023/03/08 12:12:10;;;;;;;7.73;6.00;;;;;;;;;;5032093;28;20432;-47
2023/03/08 12:14:46;;;;;;;6.97;6.23;;;;;;;;;;5032120;28;20571;-47
2023/03/08 12:17:17;;;;;;;9.37;6.30;;;;;;;;;;5032214;28;20423;-48
2023/03/08 12:19:44;;;;;;;6.47;5.77;;;;;;;;;;5032076;28;20878;-49
2023/03/08 12:22:22;;;;;;;7.27;5.83;;;;;;;;;;5032001;28;20432;-47
2023/03/08 12:24:51;;;;;;;7.20;6.50;;;;;;;;;;5032102;28;20882;-46
2023/03/08 12:27:20;;;;;;;7.07;6.37;;;;;;;;;;5032026;28;20216;-48
2023/03/08 12:29:48;;;;;;;7.30;6.50;;;;;;;;;;5032225;28;20447;-46
2023/03/08 12:32:16;;;;;;;6.60;6.00;;;;;;;;;;5032018;28;20432;-48
2023/03/08 12:34:43;;;;;;;8.97;6.50;;;;;;;;;;5031915;28;20479;-53
2023/03/08 12:37:20;;;;;;;7.47;6.63;;;;;;;;;;5032215;28;20428;-53
2023/03/08 12:39:54;;;;;;;7.73;6.17;;;;;;;;;;5032069;28;20439;-54
2023/03/08 12:42:28;;;;;;;8.30;5.87;;;;;;;;;;5031999;28;20443;-53
2023/03/08 12:45:04;;;;;;;7.07;6.33;;;;;;;;;;5032043;28;20440;-53
2023/03/08 12:47:31;;;;;;;8.33;6.27;;;;;;;;;;5032172;28;20435;-53
2023/03/08 12:50:06;;;;;;;8.43;6.03;;;;;;;;;;5032043;28;20459;-53
2023/03/08 12:52:35;;;;;;;6.17;5.67;;;;;;;;;;5032332;28;20439;-51
2023/03/08 12:55:04;;;;;;;7.00;6.30;;;;;;;;;;5031871;28;20511;-52
2023/03/08 12:57:31;;;;;;;6.93;6.00;;;;;;;;;;5031808;28;20437;-51
2023/03/08 12:59:58;;;;;;;7.73;6.90;;;;;;;;;;5032077;28;20792;-49
2023/03/08 13:02:27;;;;;;;7.40;6.70;;;;;;;;;;5031673;28;20455;-49
2023/03/08 13:05:16;;;;;;;7.97;7.23;;;;;;;;;;5031621;28;21073;-49
2023/03/08 13:07:49;;;;;;;6.83;6.13;;;;;;;;;;5031873;28;20439;-49
2023/03/08 13:10:19;;;;;;;6.63;5.93;;;;;;;;;;5034166;28;20819;-49
2023/03/08 13:13:03;;;;;;;7.33;5.60;;;;;;;;;;5035518;28;20611;-49
2023/03/08 13:15:29;;;;;;;7.47;5.90;;;;;;;;;;5035477;28;20510;-48
2023/03/08 13:18:02;;;;;;;7.00;6.07;;;;;;;;;;5035417;28;20455;-49
2023/03/08 13:20:40;;;;;;;8.50;5.33;;;;;;;;;;5035603;28;20201;-49
2023/03/08 13:23:08;;;;;;;7.30;6.10;;;;;;;;;;5035503;28;20439;-48
2023/03/08 13:25:44;;;;;;;7.37;6.67;;;;;;;;;;5035360;28;20514;-49
2023/03/08 13:28:11;;;;;;;7.70;6.90;;;;;;;;;;5035624;28;20534;-48
2023/03/08 13:30:38;;;;;;;8.63;7.50;;;;;;;;;;5035527;28;20519;-49
2023/03/08 13:33:06;;;;;;;11.67;9.07;;;;;;;;;;5035294;28;20435;-49
2023/03/08 13:35:33;;;;;;;7.03;6.33;;;;;;;;;;5035127;28;20529;-47
2023/03/08 13:38:00;;;;;;;8.70;7.77;;;;;;;;;;5033198;28;20455;-47
2023/03/08 13:40:27;;;;;;;10.90;8.07;;;;;;;;;;5034945;28;20774;-47
2023/03/08 13:42:53;;;;;;;15.53;11.77;;;;;;;;;;5034998;28;20431;-48
2023/03/08 13:45:20;;;;;;;9.80;7.40;;;;;;;;;;5034652;28;20470;-48
2023/03/08 13:47:47;;;;;;;11.67;8.53;;;;;;;;;;5034706;28;20443;-48
2023/03/08 13:50:17;;;;;;;8.43;7.53;;;;;;;;;;5034623;28;20933;-48
2023/03/08 13:52:44;;;;;;;9.40;8.23;;;;;;;;;;5034688;28;20444;-48
2023/03/08 13:55:17;;;;;;;11.77;9.70;;;;;;;;;;5034456;28;20507;-48
2023/03/08 13:57:47;;;;;;;10.53;9.43;;;;;;;;;;5034540;28;20443;-48
2023/03/08 14:00:22;;;;;;;10.97;8.50;;;;;;;;;;5034348;28;20454;-48
2023/03/08 14:02:48;;;;;;;11.37;9.07;;;;;;;;;;5034184;28;20423;-48
2023/03/08 14:05:16;;;;;;;9.40;8.40;;;;;;;;;;5034274;28;20448;-47
2023/03/08 14:07:42;;;;;;;12.23;9.17;;;;;;;;;;5034332;28;20208;-48
2023/03/08 14:10:13;;;;;;;9.93;8.67;;;;;;;;;;5034274;28;20451;-49
2023/03/08 14:12:39;;;;;;;9.20;8.23;;;;;;;;;;5034416;28;20208;-47
2023/03/08 14:15:06;;;;;;;9.47;8.50;;;;;;;;;;5034364;28;20483;-48
2023/03/08 14:17:33;;;;;;;11.93;8.10;;;;;;;;;;5033955;28;20921;-48
2023/03/08 14:20:00;;;;;;;9.47;7.97;;;;;;;;;;5033717;28;20995;-48
2023/03/08 14:22:28;;;;;;;10.07;8.50;;;;;;;;;;5033181;28;20928;-49
2023/03/08 14:24:55;;;;;;;10.00;8.20;;;;;;;;;;5034236;28;20450;-47
2023/03/08 14:27:31;;;;;;;10.93;8.63;;;;;;;;;;5033877;28;20435;-48
2023/03/08 14:30:01;;;;;;;9.17;8.27;;;;;;;;;;5034036;28;21065;-48
2023/03/08 14:32:28;;;;;;;11.03;9.03;;;;;;;;;;5033882;28;20926;-48
2023/03/08 14:35:03;;;;;;;10.27;8.60;;;;;;;;;;5033667;28;20490;-48
2023/03/08 14:37:30;;;;;;;9.17;8.27;;;;;;;;;;5033785;28;20443;-48
2023/03/08 14:40:10;;;;;;;11.47;9.47;;;;;;;;;;5033955;28;20448;-48